Página principal
METAR-TAF:

METAR-TAF

Aeroportos :

Aeroporto Internacional Blaise Diagne

Dakar, Senegal

latitude: 14-40-16N, longitude: 17-04-01W, altura: 88 m

Observação actual do tempo

O boletim foi feito há 39 minutos, às 03:00 UTC
Vento 2 kt com direcção variável
Temperatura 25°C
Humidade 89%
Pressão 1012 hPa
Visibilidade: 7000 m
Nuvens fragmentadasa uma altura de 1300 ft

METAR: GOBD 230300Z VRB02KT 7000 BKN013 25/23 Q1012 NOSIG

Hora: 03:39 (03:39 UTC)

Previsão

O boletim foi feito há 4 horas e 39 minutos, às 23:00 UTC
Previsão válida de 23 às 00 UTC a 24 às 06 UTC
Vento 8 kt de oes-noroeste
Visibilidade: 8000 m
Nuvens dispersasa uma altura de 1400 ft
Probabilidade 40% :
Temporariamente
de 23 às 04 UTC a 23 às 09 UTC
Visibilidade: 4000 m
Nuvens fragmentadasa uma altura de 1000 ft
neblina,

TAF: GOBD 222300Z 2300/2406 30008KT 8000 SCT014 PROB40 TEMPO 2304/2309 4000 BR BKN010

Observações e previsões do tempo de mais de 4000 aeroportos (mensagens METAR e TAF).

As estações disponíveis são os pontos amarelos e vermelhos sobre o mapa.

Mova o rato sobre o mapa para ver o nome da estação.

Depois clique no ponto para visualizar as observações e previsões meteorológicas.

Para alterar o mapa : clique nos botões verdes com uma cruz preta para aumentar o zoom; no botão verde com uma pitada de zoom; ou nas setas verdes para mapas adjacentes.


METAR-TAF: